sensor_id;sensor_type;location;lat;lon;timestamp;P1;durP1;ratioP1;P2;durP2;ratioP2
7607;SDS011;3845;48.120;11.534;2023-11-18T00:00:21;5.20;;;4.70;;
7607;SDS011;3845;48.120;11.534;2023-11-18T00:02:47;5.63;;;4.50;;
7607;SDS011;3845;48.120;11.534;2023-11-18T00:05:13;7.40;;;6.50;;
7607;SDS011;3845;48.120;11.534;2023-11-18T00:07:39;5.97;;;5.37;;
7607;SDS011;3845;48.120;11.534;2023-11-18T00:10:04;5.17;;;4.67;;
7607;SDS011;3845;48.120;11.534;2023-11-18T00:12:31;5.60;;;5.00;;
7607;SDS011;3845;48.120;11.534;2023-11-18T00:14:59;5.03;;;4.53;;
7607;SDS011;3845;48.120;11.534;2023-11-18T00:17:24;5.33;;;4.80;;
7607;SDS011;3845;48.120;11.534;2023-11-18T00:19:49;4.77;;;4.37;;
7607;SDS011;3845;48.120;11.534;2023-11-18T00:22:15;5.10;;;4.37;;
7607;SDS011;3845;48.120;11.534;2023-11-18T00:24:40;5.93;;;5.23;;
7607;SDS011;3845;48.120;11.534;2023-11-18T00:27:05;5.40;;;4.90;;
7607;SDS011;3845;48.120;11.534;2023-11-18T00:29:34;5.33;;;4.80;;
7607;SDS011;3845;48.120;11.534;2023-11-18T00:32:00;4.50;;;4.10;;
7607;SDS011;3845;48.120;11.534;2023-11-18T00:34:26;4.33;;;3.93;;
7607;SDS011;3845;48.120;11.534;2023-11-18T00:36:51;5.10;;;4.60;;
7607;SDS011;3845;48.120;11.534;2023-11-18T00:39:17;4.20;;;3.80;;
7607;SDS011;3845;48.120;11.534;2023-11-18T00:41:42;5.10;;;4.50;;
7607;SDS011;3845;48.120;11.534;2023-11-18T00:44:08;5.30;;;3.47;;
7607;SDS011;3845;48.120;11.534;2023-11-18T00:46:33;4.00;;;3.70;;
7607;SDS011;3845;48.120;11.534;2023-11-18T00:49:01;3.53;;;3.00;;
7607;SDS011;3845;48.120;11.534;2023-11-18T00:51:26;3.33;;;2.87;;
7607;SDS011;3845;48.120;11.534;2023-11-18T00:53:52;4.00;;;3.60;;
7607;SDS011;3845;48.120;11.534;2023-11-18T00:56:19;5.00;;;4.50;;
7607;SDS011;3845;48.120;11.534;2023-11-18T00:58:47;4.10;;;3.70;;
7607;SDS011;3845;48.120;11.534;2023-11-18T01:01:12;3.33;;;3.03;;
7607;SDS011;3845;48.120;11.534;2023-11-18T01:03:38;3.80;;;3.50;;
7607;SDS011;3845;48.120;11.534;2023-11-18T01:06:03;3.80;;;2.80;;
7607;SDS011;3845;48.120;11.534;2023-11-18T01:08:31;3.53;;;2.60;;
7607;SDS011;3845;48.120;11.534;2023-11-18T01:10:56;2.83;;;2.63;;
7607;SDS011;3845;48.120;11.534;2023-11-18T01:13:21;3.20;;;2.90;;
7607;SDS011;3845;48.120;11.534;2023-11-18T01:15:48;2.90;;;2.60;;
7607;SDS011;3845;48.120;11.534;2023-11-18T01:18:14;2.80;;;2.50;;
7607;SDS011;3845;48.120;11.534;2023-11-18T01:20:40;2.83;;;2.60;;
7607;SDS011;3845;48.120;11.534;2023-11-18T01:23:05;2.30;;;2.10;;
7607;SDS011;3845;48.120;11.534;2023-11-18T01:25:30;2.87;;;2.67;;
7607;SDS011;3845;48.120;11.534;2023-11-18T01:27:56;2.47;;;2.27;;
7607;SDS011;3845;48.120;11.534;2023-11-18T01:30:21;2.40;;;2.20;;
7607;SDS011;3845;48.120;11.534;2023-11-18T01:32:48;2.23;;;2.03;;
7607;SDS011;3845;48.120;11.534;2023-11-18T01:35:14;2.10;;;1.90;;
7607;SDS011;3845;48.120;11.534;2023-11-18T01:37:39;2.67;;;2.13;;
7607;SDS011;3845;48.120;11.534;2023-11-18T01:40:05;2.60;;;2.03;;
7607;SDS011;3845;48.120;11.534;2023-11-18T01:42:32;4.07;;;3.53;;
7607;SDS011;3845;48.120;11.534;2023-11-18T01:44:57;3.77;;;3.33;;
7607;SDS011;3845;48.120;11.534;2023-11-18T01:47:24;3.63;;;3.27;;
7607;SDS011;3845;48.120;11.534;2023-11-18T01:49:49;3.27;;;2.97;;
7607;SDS011;3845;48.120;11.534;2023-11-18T01:52:15;3.00;;;2.63;;
7607;SDS011;3845;48.120;11.534;2023-11-18T01:54:40;2.30;;;2.10;;
7607;SDS011;3845;48.120;11.534;2023-11-18T01:57:09;2.47;;;2.27;;
7607;SDS011;3845;48.120;11.534;2023-11-18T01:59:35;2.33;;;2.13;;
7607;SDS011;3845;48.120;11.534;2023-11-18T02:02:00;2.70;;;2.50;;
7607;SDS011;3845;48.120;11.534;2023-11-18T02:04:26;2.10;;;1.90;;
7607;SDS011;3845;48.120;11.534;2023-11-18T02:06:52;2.17;;;1.97;;
7607;SDS011;3845;48.120;11.534;2023-11-18T02:09:19;4.57;;;3.50;;
7607;SDS011;3845;48.120;11.534;2023-11-18T02:14:45;3.10;;;2.80;;
7607;SDS011;3845;48.120;11.534;2023-11-18T02:17:10;2.60;;;2.30;;
7607;SDS011;3845;48.120;11.534;2023-11-18T02:19:39;3.10;;;2.80;;
7607;SDS011;3845;48.120;11.534;2023-11-18T02:22:05;2.40;;;2.20;;
7607;SDS011;3845;48.120;11.534;2023-11-18T02:24:36;2.70;;;2.50;;
7607;SDS011;3845;48.120;11.534;2023-11-18T02:27:02;2.73;;;2.53;;
7607;SDS011;3845;48.120;11.534;2023-11-18T02:29:33;2.63;;;2.30;;
7607;SDS011;3845;48.120;11.534;2023-11-18T02:32:13;2.57;;;2.37;;
7607;SDS011;3845;48.120;11.534;2023-11-18T02:35:09;2.30;;;2.10;;
7607;SDS011;3845;48.120;11.534;2023-11-18T02:37:42;3.10;;;2.80;;
7607;SDS011;3845;48.120;11.534;2023-11-18T02:40:10;3.10;;;2.80;;
7607;SDS011;3845;48.120;11.534;2023-11-18T02:42:39;3.27;;;2.70;;
7607;SDS011;3845;48.120;11.534;2023-11-18T02:45:07;2.67;;;2.47;;
7607;SDS011;3845;48.120;11.534;2023-11-18T02:47:33;2.60;;;2.40;;
7607;SDS011;3845;48.120;11.534;2023-11-18T02:49:59;2.30;;;2.10;;
7607;SDS011;3845;48.120;11.534;2023-11-18T02:52:30;2.60;;;2.40;;
7607;SDS011;3845;48.120;11.534;2023-11-18T02:54:56;4.30;;;3.90;;
7607;SDS011;3845;48.120;11.534;2023-11-18T02:57:21;6.47;;;5.20;;
7607;SDS011;3845;48.120;11.534;2023-11-18T02:59:46;3.33;;;3.03;;
7607;SDS011;3845;48.120;11.534;2023-11-18T03:02:12;2.80;;;2.60;;
7607;SDS011;3845;48.120;11.534;2023-11-18T03:04:37;2.50;;;2.30;;
7607;SDS011;3845;48.120;11.534;2023-11-18T03:07:03;2.47;;;2.27;;
7607;SDS011;3845;48.120;11.534;2023-11-18T03:09:28;2.43;;;2.23;;
7607;SDS011;3845;48.120;11.534;2023-11-18T03:11:53;3.33;;;3.03;;
7607;SDS011;3845;48.120;11.534;2023-11-18T03:14:20;2.70;;;2.50;;
7607;SDS011;3845;48.120;11.534;2023-11-18T03:16:45;2.50;;;2.30;;
7607;SDS011;3845;48.120;11.534;2023-11-18T03:19:10;2.70;;;2.43;;
7607;SDS011;3845;48.120;11.534;2023-11-18T03:21:36;3.10;;;2.80;;
7607;SDS011;3845;48.120;11.534;2023-11-18T03:24:01;2.47;;;2.27;;
7607;SDS011;3845;48.120;11.534;2023-11-18T03:26:27;2.80;;;2.60;;
7607;SDS011;3845;48.120;11.534;2023-11-18T03:28:52;2.70;;;2.50;;
7607;SDS011;3845;48.120;11.534;2023-11-18T03:31:17;2.60;;;2.40;;
7607;SDS011;3845;48.120;11.534;2023-11-18T03:33:43;2.60;;;2.40;;
7607;SDS011;3845;48.120;11.534;2023-11-18T03:36:10;3.20;;;2.90;;
7607;SDS011;3845;48.120;11.534;2023-11-18T03:38:37;3.00;;;2.70;;
7607;SDS011;3845;48.120;11.534;2023-11-18T03:41:02;3.10;;;2.80;;
7607;SDS011;3845;48.120;11.534;2023-11-18T03:43:28;3.13;;;2.80;;
7607;SDS011;3845;48.120;11.534;2023-11-18T03:45:53;2.43;;;2.10;;
7607;SDS011;3845;48.120;11.534;2023-11-18T03:48:21;3.53;;;2.67;;
7607;SDS011;3845;48.120;11.534;2023-11-18T03:50:47;3.30;;;2.97;;
7607;SDS011;3845;48.120;11.534;2023-11-18T03:53:12;2.90;;;2.70;;
7607;SDS011;3845;48.120;11.534;2023-11-18T03:55:37;3.40;;;3.10;;
7607;SDS011;3845;48.120;11.534;2023-11-18T03:58:03;3.63;;;3.23;;
7607;SDS011;3845;48.120;11.534;2023-11-18T04:00:28;3.80;;;3.50;;
7607;SDS011;3845;48.120;11.534;2023-11-18T04:02:57;3.47;;;3.17;;
7607;SDS011;3845;48.120;11.534;2023-11-18T04:05:23;3.70;;;3.40;;
7607;SDS011;3845;48.120;11.534;2023-11-18T04:07:48;4.17;;;3.77;;
7607;SDS011;3845;48.120;11.534;2023-11-18T04:10:13;4.20;;;3.80;;
7607;SDS011;3845;48.120;11.534;2023-11-18T04:12:40;3.70;;;3.40;;
7607;SDS011;3845;48.120;11.534;2023-11-18T04:15:05;3.40;;;3.10;;
7607;SDS011;3845;48.120;11.534;2023-11-18T04:17:31;4.27;;;3.87;;
7607;SDS011;3845;48.120;11.534;2023-11-18T04:19:57;4.20;;;3.80;;
7607;SDS011;3845;48.120;11.534;2023-11-18T04:22:22;4.47;;;4.07;;
7607;SDS011;3845;48.120;11.534;2023-11-18T04:24:48;4.13;;;3.73;;
7607;SDS011;3845;48.120;11.534;2023-11-18T04:27:13;4.53;;;4.13;;
7607;SDS011;3845;48.120;11.534;2023-11-18T04:29:38;3.90;;;3.43;;
7607;SDS011;3845;48.120;11.534;2023-11-18T04:32:05;9.37;;;7.83;;
7607;SDS011;3845;48.120;11.534;2023-11-18T04:34:34;7.23;;;5.80;;
7607;SDS011;3845;48.120;11.534;2023-11-18T04:37:00;5.83;;;5.10;;
7607;SDS011;3845;48.120;11.534;2023-11-18T04:39:25;4.40;;;4.00;;
7607;SDS011;3845;48.120;11.534;2023-11-18T04:41:51;4.40;;;4.00;;
7607;SDS011;3845;48.120;11.534;2023-11-18T04:44:16;4.20;;;3.80;;
7607;SDS011;3845;48.120;11.534;2023-11-18T04:46:41;5.57;;;4.97;;
7607;SDS011;3845;48.120;11.534;2023-11-18T04:49:07;4.10;;;3.70;;
7607;SDS011;3845;48.120;11.534;2023-11-18T04:51:32;4.90;;;4.17;;
7607;SDS011;3845;48.120;11.534;2023-11-18T04:53:58;4.23;;;3.83;;
7607;SDS011;3845;48.120;11.534;2023-11-18T04:56:23;5.10;;;4.60;;
7607;SDS011;3845;48.120;11.534;2023-11-18T04:58:48;4.20;;;3.80;;
7607;SDS011;3845;48.120;11.534;2023-11-18T05:01:14;3.53;;;3.10;;
7607;SDS011;3845;48.120;11.534;2023-11-18T05:03:39;5.20;;;4.30;;
7607;SDS011;3845;48.120;11.534;2023-11-18T05:06:05;4.30;;;3.90;;
7607;SDS011;3845;48.120;11.534;2023-11-18T05:08:30;3.97;;;3.63;;
7607;SDS011;3845;48.120;11.534;2023-11-18T05:10:56;4.43;;;4.03;;
7607;SDS011;3845;48.120;11.534;2023-11-18T05:13:22;4.37;;;3.97;;
7607;SDS011;3845;48.120;11.534;2023-11-18T05:15:48;4.03;;;3.63;;
7607;SDS011;3845;48.120;11.534;2023-11-18T05:18:15;4.70;;;3.93;;
7607;SDS011;3845;48.120;11.534;2023-11-18T05:20:40;4.30;;;3.90;;
7607;SDS011;3845;48.120;11.534;2023-11-18T05:23:06;4.30;;;3.90;;
7607;SDS011;3845;48.120;11.534;2023-11-18T05:25:34;3.83;;;3.43;;
7607;SDS011;3845;48.120;11.534;2023-11-18T05:28:00;4.47;;;3.30;;
7607;SDS011;3845;48.120;11.534;2023-11-18T05:30:25;3.93;;;3.60;;
7607;SDS011;3845;48.120;11.534;2023-11-18T05:32:51;3.83;;;3.30;;
7607;SDS011;3845;48.120;11.534;2023-11-18T05:35:17;3.43;;;3.13;;
7607;SDS011;3845;48.120;11.534;2023-11-18T05:37:42;3.40;;;3.10;;
7607;SDS011;3845;48.120;11.534;2023-11-18T05:40:08;4.50;;;4.10;;
7607;SDS011;3845;48.120;11.534;2023-11-18T05:42:35;3.67;;;3.37;;
7607;SDS011;3845;48.120;11.534;2023-11-18T05:45:02;4.00;;;3.47;;
7607;SDS011;3845;48.120;11.534;2023-11-18T05:47:29;3.57;;;3.27;;
7607;SDS011;3845;48.120;11.534;2023-11-18T05:49:54;4.53;;;4.13;;
7607;SDS011;3845;48.120;11.534;2023-11-18T05:52:20;4.30;;;3.90;;
7607;SDS011;3845;48.120;11.534;2023-11-18T05:54:46;4.10;;;3.70;;
7607;SDS011;3845;48.120;11.534;2023-11-18T05:57:15;3.47;;;3.17;;
7607;SDS011;3845;48.120;11.534;2023-11-18T05:59:41;3.67;;;3.37;;
7607;SDS011;3845;48.120;11.534;2023-11-18T06:02:06;6.50;;;5.20;;
7607;SDS011;3845;48.120;11.534;2023-11-18T06:04:33;5.00;;;4.50;;
7607;SDS011;3845;48.120;11.534;2023-11-18T06:06:58;4.13;;;3.73;;
7607;SDS011;3845;48.120;11.534;2023-11-18T06:09:23;3.60;;;3.30;;
7607;SDS011;3845;48.120;11.534;2023-11-18T06:11:51;3.20;;;2.90;;
7607;SDS011;3845;48.120;11.534;2023-11-18T06:14:18;4.33;;;2.90;;
7607;SDS011;3845;48.120;11.534;2023-11-18T06:16:44;4.33;;;2.90;;
7607;SDS011;3845;48.120;11.534;2023-11-18T06:19:09;3.10;;;2.80;;
7607;SDS011;3845;48.120;11.534;2023-11-18T06:21:35;3.17;;;2.80;;
7607;SDS011;3845;48.120;11.534;2023-11-18T06:24:01;3.40;;;3.10;;
7607;SDS011;3845;48.120;11.534;2023-11-18T06:26:29;3.20;;;2.70;;
7607;SDS011;3845;48.120;11.534;2023-11-18T06:28:54;3.83;;;2.63;;
7607;SDS011;3845;48.120;11.534;2023-11-18T06:31:20;3.30;;;3.00;;
7607;SDS011;3845;48.120;11.534;2023-11-18T06:33:46;3.50;;;3.20;;
7607;SDS011;3845;48.120;11.534;2023-11-18T06:38:44;3.07;;;2.77;;
7607;SDS011;3845;48.120;11.534;2023-11-18T06:41:10;3.50;;;3.20;;
7607;SDS011;3845;48.120;11.534;2023-11-18T06:43:38;3.67;;;3.30;;
7607;SDS011;3845;48.120;11.534;2023-11-18T06:46:19;3.03;;;2.73;;
7607;SDS011;3845;48.120;11.534;2023-11-18T06:48:57;2.80;;;2.50;;
7607;SDS011;3845;48.120;11.534;2023-11-18T06:51:26;2.87;;;2.57;;
7607;SDS011;3845;48.120;11.534;2023-11-18T06:53:52;5.90;;;3.27;;
7607;SDS011;3845;48.120;11.534;2023-11-18T06:56:20;3.30;;;3.00;;
7607;SDS011;3845;48.120;11.534;2023-11-18T06:58:45;3.17;;;2.90;;
7607;SDS011;3845;48.120;11.534;2023-11-18T07:01:13;3.40;;;3.10;;
7607;SDS011;3845;48.120;11.534;2023-11-18T07:03:40;3.53;;;3.23;;
7607;SDS011;3845;48.120;11.534;2023-11-18T07:06:09;3.40;;;2.90;;
7607;SDS011;3845;48.120;11.534;2023-11-18T07:08:38;2.83;;;2.60;;
7607;SDS011;3845;48.120;11.534;2023-11-18T07:11:04;3.10;;;2.80;;
7607;SDS011;3845;48.120;11.534;2023-11-18T07:13:30;2.70;;;2.50;;
7607;SDS011;3845;48.120;11.534;2023-11-18T07:15:56;3.23;;;2.93;;
7607;SDS011;3845;48.120;11.534;2023-11-18T07:18:23;4.00;;;3.33;;
7607;SDS011;3845;48.120;11.534;2023-11-18T07:20:49;4.60;;;3.43;;
7607;SDS011;3845;48.120;11.534;2023-11-18T07:23:16;3.10;;;2.80;;
7607;SDS011;3845;48.120;11.534;2023-11-18T07:25:43;3.00;;;2.70;;
7607;SDS011;3845;48.120;11.534;2023-11-18T07:28:09;3.53;;;3.23;;
7607;SDS011;3845;48.120;11.534;2023-11-18T07:30:34;4.10;;;3.70;;
7607;SDS011;3845;48.120;11.534;2023-11-18T07:33:00;3.50;;;3.20;;
7607;SDS011;3845;48.120;11.534;2023-11-18T07:35:26;4.60;;;4.10;;
7607;SDS011;3845;48.120;11.534;2023-11-18T07:37:52;4.50;;;4.10;;
7607;SDS011;3845;48.120;11.534;2023-11-18T07:40:18;4.33;;;3.83;;
7607;SDS011;3845;48.120;11.534;2023-11-18T07:42:53;4.00;;;3.10;;
7607;SDS011;3845;48.120;11.534;2023-11-18T07:45:18;3.83;;;3.43;;
7607;SDS011;3845;48.120;11.534;2023-11-18T07:47:44;4.13;;;3.50;;
7607;SDS011;3845;48.120;11.534;2023-11-18T07:50:09;4.03;;;3.47;;
7607;SDS011;3845;48.120;11.534;2023-11-18T07:52:37;4.07;;;3.07;;
7607;SDS011;3845;48.120;11.534;2023-11-18T07:55:04;3.57;;;3.27;;
7607;SDS011;3845;48.120;11.534;2023-11-18T07:57:29;3.37;;;3.07;;
7607;SDS011;3845;48.120;11.534;2023-11-18T07:59:55;4.10;;;3.07;;
7607;SDS011;3845;48.120;11.534;2023-11-18T08:02:20;3.03;;;2.70;;
7607;SDS011;3845;48.120;11.534;2023-11-18T08:04:45;3.30;;;3.00;;
7607;SDS011;3845;48.120;11.534;2023-11-18T08:07:11;3.10;;;2.73;;
7607;SDS011;3845;48.120;11.534;2023-11-18T08:09:36;3.10;;;2.80;;
7607;SDS011;3845;48.120;11.534;2023-11-18T08:12:04;3.40;;;3.10;;
7607;SDS011;3845;48.120;11.534;2023-11-18T08:14:30;4.23;;;3.83;;
7607;SDS011;3845;48.120;11.534;2023-11-18T08:16:56;4.00;;;3.30;;
7607;SDS011;3845;48.120;11.534;2023-11-18T08:19:21;3.87;;;3.47;;
7607;SDS011;3845;48.120;11.534;2023-11-18T08:21:48;3.80;;;3.40;;
7607;SDS011;3845;48.120;11.534;2023-11-18T08:24:13;2.93;;;2.63;;
7607;SDS011;3845;48.120;11.534;2023-11-18T08:26:39;3.20;;;2.90;;
7607;SDS011;3845;48.120;11.534;2023-11-18T08:29:05;3.20;;;2.90;;
7607;SDS011;3845;48.120;11.534;2023-11-18T08:31:31;3.20;;;2.90;;
7607;SDS011;3845;48.120;11.534;2023-11-18T08:33:57;4.23;;;3.50;;
7607;SDS011;3845;48.120;11.534;2023-11-18T08:36:23;3.43;;;3.07;;
7607;SDS011;3845;48.120;11.534;2023-11-18T08:38:52;3.20;;;2.90;;
7607;SDS011;3845;48.120;11.534;2023-11-18T08:41:18;3.60;;;3.30;;
7607;SDS011;3845;48.120;11.534;2023-11-18T08:43:45;4.10;;;3.70;;
7607;SDS011;3845;48.120;11.534;2023-11-18T08:46:12;4.10;;;3.70;;
7607;SDS011;3845;48.120;11.534;2023-11-18T08:48:38;2.97;;;2.67;;
7607;SDS011;3845;48.120;11.534;2023-11-18T08:51:04;3.40;;;3.10;;
7607;SDS011;3845;48.120;11.534;2023-11-18T08:53:32;3.70;;;3.30;;
7607;SDS011;3845;48.120;11.534;2023-11-18T08:56:06;6.10;;;3.67;;
7607;SDS011;3845;48.120;11.534;2023-11-18T08:58:40;4.50;;;2.63;;
7607;SDS011;3845;48.120;11.534;2023-11-18T09:01:06;3.20;;;2.80;;
7607;SDS011;3845;48.120;11.534;2023-11-18T09:03:38;4.60;;;3.07;;
7607;SDS011;3845;48.120;11.534;2023-11-18T09:06:08;4.43;;;2.90;;
7607;SDS011;3845;48.120;11.534;2023-11-18T09:08:43;3.17;;;2.87;;
7607;SDS011;3845;48.120;11.534;2023-11-18T09:11:11;2.40;;;2.20;;
7607;SDS011;3845;48.120;11.534;2023-11-18T09:13:42;3.80;;;3.40;;
7607;SDS011;3845;48.120;11.534;2023-11-18T09:16:10;2.70;;;2.40;;
7607;SDS011;3845;48.120;11.534;2023-11-18T09:18:37;3.17;;;2.80;;
7607;SDS011;3845;48.120;11.534;2023-11-18T09:21:04;3.10;;;2.67;;
7607;SDS011;3845;48.120;11.534;2023-11-18T09:23:39;3.50;;;2.60;;
7607;SDS011;3845;48.120;11.534;2023-11-18T09:26:05;6.43;;;4.10;;
7607;SDS011;3845;48.120;11.534;2023-11-18T09:28:32;8.87;;;6.87;;
7607;SDS011;3845;48.120;11.534;2023-11-18T09:31:00;4.90;;;4.23;;
7607;SDS011;3845;48.120;11.534;2023-11-18T09:33:28;3.63;;;3.20;;
7607;SDS011;3845;48.120;11.534;2023-11-18T09:36:01;3.10;;;2.80;;
7607;SDS011;3845;48.120;11.534;2023-11-18T09:38:30;3.37;;;3.00;;
7607;SDS011;3845;48.120;11.534;2023-11-18T09:40:57;3.67;;;2.87;;
7607;SDS011;3845;48.120;11.534;2023-11-18T09:43:27;3.23;;;2.93;;
7607;SDS011;3845;48.120;11.534;2023-11-18T09:45:57;3.47;;;2.90;;
7607;SDS011;3845;48.120;11.534;2023-11-18T09:48:38;4.50;;;3.10;;
7607;SDS011;3845;48.120;11.534;2023-11-18T09:51:08;3.10;;;2.37;;
7607;SDS011;3845;48.120;11.534;2023-11-18T09:53:35;3.20;;;2.90;;
7607;SDS011;3845;48.120;11.534;2023-11-18T09:56:07;3.83;;;3.10;;
7607;SDS011;3845;48.120;11.534;2023-11-18T09:58:40;4.17;;;2.67;;
7607;SDS011;3845;48.120;11.534;2023-11-18T10:01:09;4.90;;;3.03;;
7607;SDS011;3845;48.120;11.534;2023-11-18T10:03:38;5.67;;;3.97;;
7607;SDS011;3845;48.120;11.534;2023-11-18T10:06:07;18.03;;;9.40;;
7607;SDS011;3845;48.120;11.534;2023-11-18T10:08:32;20.23;;;9.13;;
7607;SDS011;3845;48.120;11.534;2023-11-18T10:11:01;19.60;;;11.90;;
7607;SDS011;3845;48.120;11.534;2023-11-18T10:13:34;13.40;;;6.93;;
7607;SDS011;3845;48.120;11.534;2023-11-18T10:16:02;10.37;;;5.30;;
7607;SDS011;3845;48.120;11.534;2023-11-18T10:18:30;8.40;;;4.00;;
7607;SDS011;3845;48.120;11.534;2023-11-18T10:21:00;3.97;;;2.90;;
7607;SDS011;3845;48.120;11.534;2023-11-18T10:23:26;5.13;;;2.63;;
7607;SDS011;3845;48.120;11.534;2023-11-18T10:25:53;3.30;;;2.30;;
7607;SDS011;3845;48.120;11.534;2023-11-18T10:30:55;4.53;;;2.60;;
7607;SDS011;3845;48.120;11.534;2023-11-18T10:33:28;3.77;;;2.97;;
7607;SDS011;3845;48.120;11.534;2023-11-18T10:35:55;5.20;;;3.50;;
7607;SDS011;3845;48.120;11.534;2023-11-18T10:38:22;2.60;;;2.30;;
7607;SDS011;3845;48.120;11.534;2023-11-18T10:40:54;3.47;;;2.20;;
7607;SDS011;3845;48.120;11.534;2023-11-18T10:43:26;2.17;;;1.90;;
7607;SDS011;3845;48.120;11.534;2023-11-18T10:46:06;2.80;;;2.20;;
7607;SDS011;3845;48.120;11.534;2023-11-18T10:48:45;2.10;;;1.80;;
7607;SDS011;3845;48.120;11.534;2023-11-18T10:51:13;3.07;;;1.70;;
7607;SDS011;3845;48.120;11.534;2023-11-18T10:53:41;2.43;;;1.90;;
7607;SDS011;3845;48.120;11.534;2023-11-18T10:56:23;2.03;;;1.83;;
7607;SDS011;3845;48.120;11.534;2023-11-18T10:59:05;2.47;;;2.00;;
7607;SDS011;3845;48.120;11.534;2023-11-18T11:01:34;3.13;;;2.70;;
7607;SDS011;3845;48.120;11.534;2023-11-18T11:04:07;2.60;;;2.00;;
7607;SDS011;3845;48.120;11.534;2023-11-18T11:06:43;3.17;;;1.90;;
7607;SDS011;3845;48.120;11.534;2023-11-18T11:09:17;2.13;;;1.80;;
7607;SDS011;3845;48.120;11.534;2023-11-18T11:11:45;1.73;;;1.50;;
7607;SDS011;3845;48.120;11.534;2023-11-18T11:14:14;2.87;;;2.20;;
7607;SDS011;3845;48.120;11.534;2023-11-18T11:16:45;2.00;;;1.80;;
7607;SDS011;3845;48.120;11.534;2023-11-18T11:19:20;10.03;;;5.83;;
7607;SDS011;3845;48.120;11.534;2023-11-18T11:22:06;6.80;;;5.30;;
7607;SDS011;3845;48.120;11.534;2023-11-18T11:24:51;5.50;;;3.83;;
7607;SDS011;3845;48.120;11.534;2023-11-18T11:27:22;2.33;;;1.70;;
7607;SDS011;3845;48.120;11.534;2023-11-18T11:30:44;10.10;;;6.40;;
7607;SDS011;3845;48.120;11.534;2023-11-18T11:32:51;4.93;;;3.57;;
7607;SDS011;3845;48.120;11.534;2023-11-18T11:35:27;3.40;;;2.27;;
7607;SDS011;3845;48.120;11.534;2023-11-18T11:37:56;2.27;;;1.67;;
7607;SDS011;3845;48.120;11.534;2023-11-18T11:40:27;2.20;;;1.87;;
7607;SDS011;3845;48.120;11.534;2023-11-18T11:42:54;1.60;;;1.50;;
7607;SDS011;3845;48.120;11.534;2023-11-18T11:45:29;2.93;;;1.70;;
7607;SDS011;3845;48.120;11.534;2023-11-18T11:47:56;4.27;;;3.20;;
7607;SDS011;3845;48.120;11.534;2023-11-18T11:51:00;3.30;;;2.50;;
7607;SDS011;3845;48.120;11.534;2023-11-18T11:53:33;3.83;;;3.00;;
7607;SDS011;3845;48.120;11.534;2023-11-18T11:56:04;3.90;;;2.90;;
7607;SDS011;3845;48.120;11.534;2023-11-18T11:58:34;4.13;;;2.10;;
7607;SDS011;3845;48.120;11.534;2023-11-18T12:01:21;1.90;;;1.60;;
7607;SDS011;3845;48.120;11.534;2023-11-18T12:03:57;2.97;;;2.30;;
7607;SDS011;3845;48.120;11.534;2023-11-18T12:06:23;11.63;;;7.80;;
7607;SDS011;3845;48.120;11.534;2023-11-18T12:08:51;6.20;;;4.20;;
7607;SDS011;3845;48.120;11.534;2023-11-18T12:11:20;2.67;;;1.97;;
7607;SDS011;3845;48.120;11.534;2023-11-18T12:14:03;4.23;;;3.00;;
7607;SDS011;3845;48.120;11.534;2023-11-18T12:19:29;1.80;;;1.40;;
7607;SDS011;3845;48.120;11.534;2023-11-18T12:22:01;1.57;;;1.37;;
7607;SDS011;3845;48.120;11.534;2023-11-18T12:24:35;2.60;;;1.73;;
7607;SDS011;3845;48.120;11.534;2023-11-18T12:27:00;1.60;;;1.40;;
7607;SDS011;3845;48.120;11.534;2023-11-18T12:29:34;2.43;;;1.90;;
7607;SDS011;3845;48.120;11.534;2023-11-18T12:31:59;2.30;;;1.50;;
7607;SDS011;3845;48.120;11.534;2023-11-18T12:34:25;1.77;;;1.47;;
7607;SDS011;3845;48.120;11.534;2023-11-18T12:40:37;2.13;;;1.40;;
7607;SDS011;3845;48.120;11.534;2023-11-18T12:43:17;2.20;;;1.70;;
7607;SDS011;3845;48.120;11.534;2023-11-18T12:48:53;3.03;;;1.60;;
7607;SDS011;3845;48.120;11.534;2023-11-18T12:51:21;2.20;;;1.50;;
7607;SDS011;3845;48.120;11.534;2023-11-18T12:53:48;1.40;;;1.30;;
7607;SDS011;3845;48.120;11.534;2023-11-18T12:56:16;2.80;;;1.47;;
7607;SDS011;3845;48.120;11.534;2023-11-18T12:58:45;4.90;;;1.60;;
7607;SDS011;3845;48.120;11.534;2023-11-18T13:01:11;1.97;;;1.60;;
7607;SDS011;3845;48.120;11.534;2023-11-18T13:03:39;2.70;;;2.13;;
7607;SDS011;3845;48.120;11.534;2023-11-18T13:06:08;5.97;;;4.10;;
7607;SDS011;3845;48.120;11.534;2023-11-18T13:08:34;5.37;;;3.97;;
7607;SDS011;3845;48.120;11.534;2023-11-18T13:11:00;3.37;;;2.50;;
7607;SDS011;3845;48.120;11.534;2023-11-18T13:13:30;2.17;;;1.90;;
7607;SDS011;3845;48.120;11.534;2023-11-18T13:15:58;2.27;;;1.70;;
7607;SDS011;3845;48.120;11.534;2023-11-18T13:18:23;2.67;;;1.70;;
7607;SDS011;3845;48.120;11.534;2023-11-18T13:20:55;2.07;;;1.23;;
7607;SDS011;3845;48.120;11.534;2023-11-18T13:23:24;2.10;;;1.70;;
7607;SDS011;3845;48.120;11.534;2023-11-18T13:25:49;1.97;;;1.40;;
7607;SDS011;3845;48.120;11.534;2023-11-18T13:28:15;1.77;;;1.43;;
7607;SDS011;3845;48.120;11.534;2023-11-18T13:30:41;2.37;;;1.40;;
7607;SDS011;3845;48.120;11.534;2023-11-18T13:33:06;2.37;;;1.50;;
7607;SDS011;3845;48.120;11.534;2023-11-18T13:35:32;1.57;;;1.20;;
7607;SDS011;3845;48.120;11.534;2023-11-18T13:37:58;1.90;;;1.40;;
7607;SDS011;3845;48.120;11.534;2023-11-18T13:40:24;1.80;;;1.33;;
7607;SDS011;3845;48.120;11.534;2023-11-18T13:43:01;1.80;;;1.37;;
7607;SDS011;3845;48.120;11.534;2023-11-18T13:45:28;1.23;;;1.13;;
7607;SDS011;3845;48.120;11.534;2023-11-18T13:47:55;1.70;;;1.30;;
7607;SDS011;3845;48.120;11.534;2023-11-18T13:50:22;2.53;;;1.20;;
7607;SDS011;3845;48.120;11.534;2023-11-18T13:52:47;1.80;;;1.40;;
7607;SDS011;3845;48.120;11.534;2023-11-18T13:55:14;1.70;;;1.30;;
7607;SDS011;3845;48.120;11.534;2023-11-18T13:57:51;1.90;;;1.23;;
7607;SDS011;3845;48.120;11.534;2023-11-18T14:00:18;1.80;;;1.23;;
7607;SDS011;3845;48.120;11.534;2023-11-18T14:02:43;2.40;;;1.43;;
7607;SDS011;3845;48.120;11.534;2023-11-18T14:05:17;1.53;;;1.30;;
7607;SDS011;3845;48.120;11.534;2023-11-18T14:07:45;1.80;;;1.43;;
7607;SDS011;3845;48.120;11.534;2023-11-18T14:10:10;1.73;;;1.30;;
7607;SDS011;3845;48.120;11.534;2023-11-18T14:12:38;2.50;;;1.40;;
7607;SDS011;3845;48.120;11.534;2023-11-18T14:15:04;1.80;;;1.30;;
7607;SDS011;3845;48.120;11.534;2023-11-18T14:17:30;1.60;;;1.30;;
7607;SDS011;3845;48.120;11.534;2023-11-18T14:19:55;1.70;;;1.50;;
7607;SDS011;3845;48.120;11.534;2023-11-18T14:22:21;2.07;;;1.40;;
7607;SDS011;3845;48.120;11.534;2023-11-18T14:24:46;1.57;;;1.40;;
7607;SDS011;3845;48.120;11.534;2023-11-18T14:27:12;1.60;;;1.20;;
7607;SDS011;3845;48.120;11.534;2023-11-18T14:29:38;1.33;;;1.20;;
7607;SDS011;3845;48.120;11.534;2023-11-18T14:32:04;1.47;;;1.20;;
7607;SDS011;3845;48.120;11.534;2023-11-18T14:34:31;1.20;;;1.10;;
7607;SDS011;3845;48.120;11.534;2023-11-18T14:36:56;2.13;;;1.20;;
7607;SDS011;3845;48.120;11.534;2023-11-18T14:39:21;1.27;;;1.00;;
7607;SDS011;3845;48.120;11.534;2023-11-18T14:41:47;1.50;;;1.20;;
7607;SDS011;3845;48.120;11.534;2023-11-18T14:44:13;2.53;;;1.80;;
7607;SDS011;3845;48.120;11.534;2023-11-18T14:46:38;2.80;;;1.57;;
7607;SDS011;3845;48.120;11.534;2023-11-18T14:49:06;1.90;;;1.37;;
7607;SDS011;3845;48.120;11.534;2023-11-18T14:51:32;1.70;;;1.50;;
7607;SDS011;3845;48.120;11.534;2023-11-18T14:53:57;1.93;;;1.53;;
7607;SDS011;3845;48.120;11.534;2023-11-18T14:56:23;2.27;;;1.60;;
7607;SDS011;3845;48.120;11.534;2023-11-18T14:58:48;1.60;;;1.23;;
7607;SDS011;3845;48.120;11.534;2023-11-18T15:01:15;1.57;;;1.30;;
7607;SDS011;3845;48.120;11.534;2023-11-18T15:03:40;1.47;;;1.20;;
7607;SDS011;3845;48.120;11.534;2023-11-18T15:06:06;1.70;;;1.10;;
7607;SDS011;3845;48.120;11.534;2023-11-18T15:08:31;1.73;;;1.20;;
7607;SDS011;3845;48.120;11.534;2023-11-18T15:10:57;1.93;;;1.20;;
7607;SDS011;3845;48.120;11.534;2023-11-18T15:13:25;1.33;;;1.20;;
7607;SDS011;3845;48.120;11.534;2023-11-18T15:15:51;2.77;;;1.20;;
7607;SDS011;3845;48.120;11.534;2023-11-18T15:18:16;1.20;;;1.10;;
7607;SDS011;3845;48.120;11.534;2023-11-18T15:20:45;1.23;;;1.00;;